Time;durP1;ratioP1;P1;durP2;ratioP2;P2;SDS_P1;SDS_P2;PMS_P1;PMS_P2;Temp;Humidity;BMP_temperature;BMP_pressure;BME280_temperature;BME280_humidity;BME280_pressure;Samples;Min_cycle;Max_cycle;Signal;HPM_P1;HPM_P2
2021/12/22 00:00:34;;;;;;;;;56.80;45.00;;;;;4.28;43.34;99635.19;6137770;28;98192;-65
2021/12/22 00:03:39;;;;;;;;;60.40;47.00;;;;;4.18;43.37;99629.16;6119150;28;97276;-64
2021/12/22 00:06:44;;;;;;;;;57.20;45.20;;;;;4.18;43.53;99637.19;6137807;28;97013;-65
2021/12/22 00:09:47;;;;;;;;;60.20;46.00;;;;;4.18;43.67;99629.16;6138169;28;96535;-63
2021/12/22 00:12:51;;;;;;;;;58.80;46.00;;;;;4.19;43.60;99635.34;6137120;28;97147;-64
2021/12/22 00:15:56;;;;;;;;;58.40;44.80;;;;;4.04;43.59;99634.28;6136062;28;97468;-64
2021/12/22 00:18:59;;;;;;;;;57.40;44.80;;;;;4.01;43.93;99632.78;6138458;28;96589;-64
2021/12/22 00:22:04;;;;;;;;;58.00;44.00;;;;;3.97;43.76;99633.25;6138233;28;96730;-65
2021/12/22 00:25:08;;;;;;;;;56.20;45.00;;;;;3.94;44.00;99629.09;6137200;28;97452;-63
2021/12/22 00:28:11;;;;;;;;;55.00;44.00;;;;;3.86;44.22;99643.22;6118883;28;97476;-63
2021/12/22 00:31:18;;;;;;;;;55.00;44.00;;;;;3.86;44.02;99648.56;6132115;28;97527;-64
2021/12/22 00:34:22;;;;;;;;;57.25;45.25;;;;;3.83;44.28;99656.06;6118780;28;99478;-64
2021/12/22 00:37:29;;;;;;;;;58.00;44.00;;;;;3.81;44.21;99650.06;6138095;28;96587;-64
2021/12/22 00:40:32;;;;;;;;;56.40;45.00;;;;;3.82;44.47;99654.38;6135092;28;97124;-64
2021/12/22 00:43:36;;;;;;;;;56.00;44.60;;;;;3.75;44.65;99650.69;6119755;28;99571;-64
2021/12/22 00:46:40;;;;;;;;;59.60;45.00;;;;;3.72;44.50;99659.81;6137416;28;96694;-64
2021/12/22 00:49:44;;;;;;;;;56.00;43.60;;;;;3.54;44.61;99612.91;6129452;28;97507;-64
2021/12/22 00:52:50;;;;;;;;;56.00;44.00;;;;;3.82;44.49;99643.69;6134352;28;97877;-62
2021/12/22 00:55:53;;;;;;;;;58.80;44.40;;;;;3.90;44.23;99657.09;6118457;28;97878;-64
2021/12/22 00:58:56;;;;;;;;;55.60;44.60;;;;;3.90;44.34;99657.09;6118471;28;98015;-63
2021/12/22 01:02:02;;;;;;;;;55.60;43.00;;;;;3.86;44.19;99663.75;6137440;28;96998;-64
2021/12/22 01:05:06;;;;;;;;;54.80;42.80;;;;;3.91;44.35;99656.06;6137446;28;98003;-63
2021/12/22 01:08:11;;;;;;;;;57.00;43.40;;;;;3.91;44.31;99659.59;6129050;28;96499;-64
2021/12/22 01:11:14;;;;;;;;;55.00;43.80;;;;;3.89;44.25;99658.09;6136353;28;97485;-63
2021/12/22 01:14:18;;;;;;;;;58.00;44.00;;;;;3.90;44.57;99663.28;6125156;28;97488;-64
2021/12/22 01:17:21;;;;;;;;;57.40;45.40;;;;;3.89;44.32;99672.25;6129655;28;98174;-64
2021/12/22 01:20:29;;;;;;;;;56.40;44.00;;;;;3.85;44.19;99678.06;6128723;28;97888;-64
2021/12/22 01:23:40;;;;;;;;;58.00;46.00;;;;;3.90;44.47;99676.59;6119513;28;96541;-64
2021/12/22 01:26:51;;;;;;;;;58.50;45.00;;;;;3.88;44.27;99675.91;6122375;28;97527;-64
2021/12/22 01:29:54;;;;;;;;;54.20;43.00;;;;;3.79;44.47;99673.38;6119034;28;98723;-63
2021/12/22 01:33:01;;;;;;;;;57.80;44.80;;;;;3.84;44.62;99684.41;6132831;28;99627;-63
2021/12/22 01:36:05;;;;;;;;;57.40;44.00;;;;;3.84;44.51;99682.56;6133839;28;98496;-64
2021/12/22 01:39:09;;;;;;;;;56.50;44.50;;;;;3.90;44.54;99687.28;6136780;28;97447;-62
2021/12/22 01:42:13;;;;;;;;;57.00;44.00;;;;;3.93;44.54;99680.78;6135321;28;97051;-62
2021/12/22 01:45:48;;;;;;;;;59.50;44.00;;;;;3.98;44.28;99681.13;6139360;28;96481;-62
2021/12/22 01:49:11;;;;;;;;;55.60;45.00;;;;;3.98;44.22;99675.78;6139294;28;97771;-63
2021/12/22 01:52:15;;;;;;;;;54.40;44.00;;;;;3.95;44.30;99676.13;6140260;28;97432;-62
2021/12/22 01:55:33;;;;;;;;;58.00;45.00;;;;;3.89;44.57;99682.09;6140120;28;97506;-62
2021/12/22 01:58:39;;;;;;;;;58.00;46.00;;;;;3.87;44.44;99676.06;6140461;28;97162;-64
2021/12/22 02:01:43;;;;;;;;;58.40;45.20;;;;;3.84;44.61;99681.72;6140867;28;97166;-62
2021/12/22 02:04:48;;;;;;;;;59.40;46.00;;;;;3.79;44.73;99686.72;6122391;28;96707;-63
2021/12/22 02:07:56;;;;;;;;;59.60;44.80;;;;;3.78;44.89;99679.69;6139591;28;96941;-64
2021/12/22 02:11:01;;;;;;;;;61.40;47.00;;;;;3.76;44.86;99679.03;6139996;28;98076;-62
2021/12/22 02:14:06;;;;;;;;;58.20;45.20;;;;;3.77;45.05;99670.84;6123023;28;99070;-63
2021/12/22 02:17:11;;;;;;;;;59.20;46.20;;;;;3.75;45.17;99677.34;6120986;28;99557;-64
2021/12/22 02:20:19;;;;;;;;;59.20;45.40;;;;;3.73;45.15;99679.34;6121948;28;97152;-64
2021/12/22 02:23:22;;;;;;;;;60.40;45.40;;;;;3.80;45.13;99673.22;6138281;28;96780;-62
2021/12/22 02:26:32;;;;;;;;;58.00;45.75;;;;;3.76;45.14;99673.69;6124927;28;97508;-64
2021/12/22 02:29:38;;;;;;;;;61.00;45.40;;;;;3.89;44.93;99674.09;6138870;28;97588;-63
2021/12/22 02:36:11;;;;;;;;;60.60;46.60;;;;;3.88;45.03;99670.59;6112895;28;98284;-62
2021/12/22 02:39:14;;;;;;;;;61.00;47.00;;;;;3.89;44.88;99668.75;6139891;28;96391;-63
2021/12/22 02:42:20;;;;;;;;;61.60;46.20;;;;;3.71;45.32;99668.84;6134834;28;100405;-62
2021/12/22 02:45:24;;;;;;;;;57.60;46.00;;;;;3.76;45.48;99666.50;6141236;28;96417;-63
2021/12/22 02:48:31;;;;;;;;;62.00;47.00;;;;;3.78;45.17;99677.88;6140368;28;97418;-64
2021/12/22 02:51:37;;;;;;;;;62.60;47.60;;;;;3.87;45.13;99668.91;6141313;28;97065;-64
2021/12/22 02:54:47;;;;;;;;;61.00;46.00;;;;;3.77;45.07;99654.84;6123004;28;97817;-64
2021/12/22 02:57:50;;;;;;;;;61.20;48.00;;;;;3.79;45.37;99673.38;6132700;28;96825;-64
2021/12/22 03:01:12;;;;;;;;;62.00;48.00;;;;;3.87;45.35;99676.06;6139506;28;97493;-63
2021/12/22 03:04:22;;;;;;;;;62.00;48.00;;;;;3.93;45.14;99675.44;6141293;28;97371;-63
2021/12/22 03:07:30;;;;;;;;;62.25;46.00;;;;;4.03;44.96;99675.31;6139271;28;97875;-62
2021/12/22 03:10:33;;;;;;;;;61.25;47.25;;;;;4.04;44.89;99671.66;6139883;28;97239;-64
2021/12/22 03:13:37;;;;;;;;;59.80;46.60;;;;;4.08;45.03;99678.34;6140601;28;96932;-64
2021/12/22 03:16:42;;;;;;;;;61.75;48.00;;;;;4.14;44.54;99680.38;6138016;28;97024;-64
2021/12/22 03:19:46;;;;;;;;;62.00;49.00;;;;;4.07;44.67;99674.81;6122137;28;96532;-63
2021/12/22 03:22:51;;;;;;;;;64.20;49.00;;;;;4.10;44.66;99676.34;6115728;28;97000;-63
2021/12/22 03:25:55;;;;;;;;;65.40;49.00;;;;;4.06;44.96;99669.63;6138225;28;97489;-62
2021/12/22 03:28:58;;;;;;;;;62.00;49.00;;;;;4.00;44.69;99664.97;6138536;28;97141;-64
2021/12/22 03:32:02;;;;;;;;;60.00;46.40;;;;;3.96;44.99;99687.63;6122864;28;97448;-63
2021/12/22 03:35:06;;;;;;;;;63.25;47.00;;;;;3.94;45.25;99685.13;6110250;28;97935;-63
2021/12/22 03:38:12;;;;;;;;;61.00;47.00;;;;;3.98;45.08;99681.13;6128537;28;96694;-64
2021/12/22 03:41:16;;;;;;;;;63.20;48.00;;;;;4.12;44.76;99679.69;6122749;28;100112;-63
2021/12/22 03:44:19;;;;;;;;;62.00;46.00;;;;;4.12;45.16;99691.19;6122314;28;96618;-63
2021/12/22 03:47:22;;;;;;;;;57.60;46.00;;;;;4.07;44.83;99685.50;6138985;28;97643;-63
2021/12/22 03:50:26;;;;;;;;;62.00;47.20;;;;;4.11;45.10;99692.19;6140045;28;97467;-64
2021/12/22 03:53:31;;;;;;;;;63.25;48.00;;;;;4.08;45.07;99687.19;6138339;28;96443;-63
2021/12/22 03:56:34;;;;;;;;;61.00;47.00;;;;;4.14;44.84;99689.22;6133768;28;97442;-64
2021/12/22 03:59:37;;;;;;;;;57.20;46.00;;;;;4.08;44.96;99692.50;6119927;28;98365;-63
2021/12/22 04:02:41;;;;;;;;;60.50;46.00;;;;;4.16;44.82;99697.88;6138046;28;97214;-63
2021/12/22 04:05:45;;;;;;;;;59.60;45.00;;;;;3.98;44.80;99666.94;6106892;28;98255;-64
2021/12/22 04:08:50;;;;;;;;;58.40;45.20;;;;;4.22;44.78;99694.56;6132852;28;97055;-63
2021/12/22 04:11:55;;;;;;;;;62.00;47.00;;;;;4.25;44.39;99688.09;6138039;28;99707;-62
2021/12/22 04:14:58;;;;;;;;;61.20;47.00;;;;;4.22;44.48;99686.56;6135886;28;97002;-64
2021/12/22 04:18:02;;;;;;;;;57.00;44.00;;;;;4.23;44.73;99682.91;6137643;28;97133;-62
2021/12/22 04:21:05;;;;;;;;;57.60;44.60;;;;;4.24;44.51;99686.41;6138367;28;98134;-63
2021/12/22 04:24:10;;;;;;;;;59.00;44.60;;;;;4.28;44.79;99685.91;6129403;28;97516;-63
2021/12/22 04:27:13;;;;;;;;;53.00;41.00;;;;;4.33;44.74;99690.78;6138681;28;96818;-63
2021/12/22 04:30:17;;;;;;;;;57.00;44.00;;;;;4.32;44.83;99697.09;6140027;28;96455;-63
2021/12/22 04:33:21;;;;;;;;;57.40;45.40;;;;;4.25;45.05;99696.91;6138033;28;96833;-64
2021/12/22 04:36:24;;;;;;;;;61.20;45.80;;;;;4.28;44.93;99701.09;6119127;28;97079;-63
2021/12/22 04:39:32;;;;;;;;;58.00;44.00;;;;;4.26;45.15;99697.75;6120376;28;97710;-63
2021/12/22 04:42:35;;;;;;;;;53.60;41.80;;;;;4.14;45.25;99704.38;6138078;28;97739;-64
2021/12/22 04:45:39;;;;;;;;;53.00;42.60;;;;;4.27;44.84;99710.09;6137421;28;96674;-63
2021/12/22 04:48:42;;;;;;;;;56.80;45.00;;;;;4.25;45.11;99704.09;6136880;28;96992;-62
2021/12/22 04:51:50;;;;;;;;;52.25;42.00;;;;;4.28;44.92;99709.94;6118901;28;97097;-65
2021/12/22 04:55:04;;;;;;;;;53.00;41.60;;;;;4.28;45.02;99707.28;6136420;28;97230;-62
2021/12/22 04:58:07;;;;;;;;;55.00;41.40;;;;;4.19;45.29;99708.25;6128547;28;97849;-64
2021/12/22 05:01:11;;;;;;;;;51.80;40.00;;;;;4.07;45.75;99706.84;6135207;28;97361;-63
2021/12/22 05:04:15;;;;;;;;;47.60;40.00;;;;;4.15;45.61;99703.38;6118961;28;97201;-63
2021/12/22 05:07:19;;;;;;;;;49.00;39.00;;;;;4.16;46.00;99710.38;6137813;28;97449;-63
2021/12/22 05:10:26;;;;;;;;;53.20;40.20;;;;;4.15;46.17;99701.56;6132726;28;99487;-64
2021/12/22 05:13:30;;;;;;;;;51.50;41.00;;;;;4.10;46.15;99700.38;6137979;28;96813;-63
2021/12/22 05:16:33;;;;;;;;;47.40;37.80;;;;;4.18;46.04;99705.72;6139484;28;96866;-63
2021/12/22 05:19:36;;;;;;;;;49.20;38.20;;;;;4.07;46.56;99698.84;6144854;28;97380;-64
2021/12/22 05:22:40;;;;;;;;;47.00;38.00;;;;;4.02;46.79;99700.31;6127605;28;97209;-64
2021/12/22 05:25:45;;;;;;;;;45.20;36.60;;;;;3.95;46.99;99712.63;6125816;28;96782;-64
2021/12/22 05:28:48;;;;;;;;;46.50;37.25;;;;;3.88;46.77;99709.75;6124844;28;96789;-63
2021/12/22 05:31:54;;;;;;;;;42.75;34.00;;;;;3.96;46.65;99716.97;6142232;28;97288;-62
2021/12/22 05:34:58;;;;;;;;;43.20;35.20;;;;;3.95;47.01;99720.63;6146086;28;97517;-63
2021/12/22 05:38:01;;;;;;;;;47.00;37.20;;;;;3.97;47.02;99721.28;6127939;28;97617;-64
2021/12/22 05:41:06;;;;;;;;;45.50;35.50;;;;;3.95;46.93;99713.47;6142744;28;97483;-64
2021/12/22 05:44:09;;;;;;;;;49.00;37.00;;;;;3.91;46.93;99712.09;6127152;28;99531;-64
2021/12/22 05:47:13;;;;;;;;;48.20;36.00;;;;;3.98;47.03;99720.31;6139539;28;97477;-62
2021/12/22 05:50:16;;;;;;;;;49.40;39.00;;;;;4.03;46.83;99721.50;6141800;28;97584;-63
2021/12/22 05:53:23;;;;;;;;;47.80;36.00;;;;;4.13;46.68;99724.88;6141167;28;97959;-63
2021/12/22 05:56:30;;;;;;;;;47.00;38.00;;;;;4.15;46.72;99722.06;6126396;28;97538;-63
2021/12/22 05:59:33;;;;;;;;;51.00;38.80;;;;;4.16;46.86;99732.56;6125556;28;98057;-64
2021/12/22 06:02:36;;;;;;;;;48.40;38.40;;;;;4.23;46.47;99738.09;6143452;28;96542;-63
2021/12/22 06:05:41;;;;;;;;;52.00;41.00;;;;;4.28;46.28;99743.81;6127624;28;98531;-64
2021/12/22 06:08:44;;;;;;;;;54.80;42.80;;;;;4.30;46.05;99755.97;6144725;28;98149;-63
2021/12/22 06:11:48;;;;;;;;;52.50;41.00;;;;;4.20;46.29;99747.25;6145893;28;97384;-63
2021/12/22 06:14:52;;;;;;;;;52.75;41.75;;;;;4.30;46.33;99755.97;6130538;28;97557;-63
2021/12/22 06:17:57;;;;;;;;;55.40;42.00;;;;;4.30;46.44;99758.66;6133778;28;97536;-64
2021/12/22 06:21:01;;;;;;;;;55.80;42.40;;;;;4.32;46.35;99770.00;6121575;28;97507;-64
2021/12/22 06:24:05;;;;;;;;;57.60;43.60;;;;;4.38;45.73;99775.72;6136999;28;97714;-64
2021/12/22 06:27:10;;;;;;;;;56.20;44.00;;;;;4.44;46.20;99775.06;6140418;28;97266;-63
2021/12/22 06:30:14;;;;;;;;;57.00;44.00;;;;;4.44;46.16;99775.91;6135980;28;97340;-64
2021/12/22 06:33:18;;;;;;;;;58.50;45.00;;;;;4.43;46.16;99786.75;6138748;28;96861;-64
2021/12/22 06:36:21;;;;;;;;;59.20;45.40;;;;;4.41;45.80;99792.25;6122414;28;97516;-65
2021/12/22 06:39:24;;;;;;;;;57.67;45.33;;;;;4.32;46.23;99786.03;6138403;28;97220;-63
2021/12/22 06:42:29;;;;;;;;;60.80;46.00;;;;;4.34;46.13;99800.06;6140096;28;97474;-64
2021/12/22 06:45:32;;;;;;;;;61.40;45.40;;;;;4.34;46.27;99800.06;6139883;28;96520;-64
2021/12/22 06:48:36;;;;;;;;;60.50;47.00;;;;;4.36;46.33;99799.88;6141112;28;97523;-63
2021/12/22 06:51:40;;;;;;;;;60.00;46.00;;;;;4.33;46.57;99814.41;6140814;28;96891;-64
2021/12/22 06:54:43;;;;;;;;;61.00;47.20;;;;;4.41;46.25;99805.59;6123478;28;98085;-64
2021/12/22 06:57:49;;;;;;;;;61.33;47.00;;;;;4.46;46.07;99805.09;6121230;28;97047;-63
2021/12/22 07:00:52;;;;;;;;;62.80;46.60;;;;;4.51;46.05;99814.31;6140487;28;97069;-63
2021/12/22 07:03:55;;;;;;;;;62.00;47.00;;;;;4.54;46.21;99815.84;6139563;28;97673;-64
2021/12/22 07:06:58;;;;;;;;;64.00;47.00;;;;;4.56;46.01;99814.66;6138303;28;97095;-64
2021/12/22 07:10:03;;;;;;;;;62.00;48.00;;;;;4.63;46.23;99825.56;6118675;28;96692;-64
2021/12/22 07:13:08;;;;;;;;;64.00;47.80;;;;;4.68;45.84;99825.91;6139527;28;96978;-64
2021/12/22 07:16:11;;;;;;;;;62.00;47.00;;;;;4.65;46.06;99832.41;6139108;28;97446;-64
2021/12/22 07:19:14;;;;;;;;;63.00;48.00;;;;;4.67;46.05;99835.75;6121850;28;96744;-64
2021/12/22 07:22:18;;;;;;;;;64.60;49.60;;;;;4.77;45.80;99832.94;6139298;28;97529;-63
2021/12/22 07:25:24;;;;;;;;;62.40;48.00;;;;;4.76;45.91;99836.63;6139733;28;97528;-63
2021/12/22 07:28:29;;;;;;;;;62.00;47.00;;;;;4.74;45.99;99847.44;6139601;28;98111;-65
2021/12/22 07:31:32;;;;;;;;;61.20;48.00;;;;;4.82;45.98;99849.34;6105921;28;98508;-62
2021/12/22 07:34:44;;;;;;;;;62.25;48.50;;;;;4.70;45.88;99845.25;6137245;28;99578;-63
2021/12/22 07:37:52;;;;;;;;;64.40;47.00;;;;;4.79;45.78;99863.84;6119669;28;96832;-63
2021/12/22 07:40:57;;;;;;;;;60.60;47.60;;;;;4.82;46.10;99853.84;6137051;28;97564;-64
2021/12/22 07:44:02;;;;;;;;;62.50;46.50;;;;;4.84;45.83;99857.19;6139166;28;96720;-62
2021/12/22 07:47:06;;;;;;;;;62.75;48.00;;;;;4.93;46.15;99861.56;6121611;28;96471;-64
2021/12/22 07:50:10;;;;;;;;;62.00;47.40;;;;;4.99;45.63;99869.75;6139166;28;97431;-64
2021/12/22 07:53:14;;;;;;;;;61.80;46.60;;;;;4.91;45.68;99850.19;6121136;28;97267;-63
2021/12/22 07:56:17;;;;;;;;;58.00;47.60;;;;;5.09;45.60;99866.94;6138336;28;98174;-64
2021/12/22 07:59:22;;;;;;;;;64.00;49.60;;;;;5.15;45.21;99866.28;6138445;28;97430;-63
2021/12/22 08:02:25;;;;;;;;;61.60;47.60;;;;;5.19;45.07;99873.00;6104237;28;98348;-63
2021/12/22 08:05:28;;;;;;;;;62.80;48.80;;;;;5.28;45.35;99872.00;6120531;28;98333;-64
2021/12/22 08:08:32;;;;;;;;;65.50;49.00;;;;;5.34;45.00;99866.00;6136094;28;97264;-64
2021/12/22 08:11:35;;;;;;;;;64.60;50.00;;;;;5.31;45.11;99876.19;6138113;28;96445;-64
2021/12/22 08:14:40;;;;;;;;;62.60;48.00;;;;;5.31;45.11;99871.69;6122042;28;97291;-62
2021/12/22 08:17:43;;;;;;;;;61.00;48.00;;;;;5.34;45.52;99876.69;6138266;28;97860;-64
2021/12/22 08:20:47;;;;;;;;;63.00;49.00;;;;;5.37;44.96;99871.03;6136589;28;97459;-63
2021/12/22 08:23:50;;;;;;;;;66.00;51.00;;;;;5.34;44.97;99847.28;6135287;28;97827;-64
2021/12/22 08:26:53;;;;;;;;;66.00;50.00;;;;;5.45;44.86;99867.53;6119497;28;98593;-63
2021/12/22 08:29:58;;;;;;;;;65.60;49.20;;;;;5.45;44.99;99867.53;6136992;28;97393;-63
2021/12/22 08:33:09;;;;;;;;;65.00;49.00;;;;;5.52;44.92;99873.91;6137436;28;97096;-63
2021/12/22 08:39:34;;;;;;;;;64.40;48.00;;;;;5.60;44.71;99880.09;6119524;28;99413;-63
2021/12/22 08:42:38;;;;;;;;;61.25;48.00;;;;;5.50;44.13;99873.22;6136031;28;97501;-63
2021/12/22 08:45:43;;;;;;;;;64.00;48.75;;;;;5.68;44.37;99884.59;6103583;28;98603;-63
2021/12/22 08:48:46;;;;;;;;;66.25;48.50;;;;;5.73;44.54;99881.44;6118737;28;96778;-63
2021/12/22 08:51:50;;;;;;;;;64.00;49.00;;;;;5.76;44.05;99894.50;6137884;28;96913;-63
2021/12/22 08:54:54;;;;;;;;;63.60;48.60;;;;;5.83;44.12;99887.44;6137293;28;97868;-63
2021/12/22 08:57:57;;;;;;;;;62.00;48.00;;;;;5.88;43.93;99885.97;6124019;28;97341;-63
2021/12/22 09:01:02;;;;;;;;;60.60;47.40;;;;;5.91;43.55;99890.19;6113519;28;97788;-62
2021/12/22 09:04:06;;;;;;;;;61.75;47.00;;;;;5.98;43.39;99885.81;6120890;28;97234;-64
2021/12/22 09:07:09;;;;;;;;;58.60;44.40;;;;;5.96;43.29;99883.28;6118423;28;97422;-64
2021/12/22 09:10:13;;;;;;;;;55.80;44.00;;;;;6.07;42.89;99882.13;6117566;28;99861;-63
2021/12/22 09:13:19;;;;;;;;;57.00;45.00;;;;;6.16;42.95;99888.34;6134168;28;96506;-64
2021/12/22 09:16:24;;;;;;;;;57.00;45.50;;;;;6.25;42.27;99892.66;6132543;28;97643;-64
2021/12/22 09:19:28;;;;;;;;;59.50;46.50;;;;;6.46;42.13;99892.94;6133325;28;96579;-64
2021/12/22 09:22:31;;;;;;;;;61.00;44.20;;;;;6.64;41.75;99890.91;6133636;28;97429;-64
2021/12/22 09:25:35;;;;;;;;;54.40;43.20;;;;;7.55;40.61;99885.75;6123800;28;97523;-63
2021/12/22 09:28:38;;;;;;;;;56.00;44.00;;;;;7.86;39.44;99895.63;6109576;28;96535;-64
2021/12/22 09:31:43;;;;;;;;;48.75;39.75;;;;;8.28;38.14;99896.75;6108636;28;96785;-64
2021/12/22 09:34:49;;;;;;;;;50.50;40.75;;;;;8.97;37.34;99875.03;6126616;28;97026;-64
2021/12/22 09:37:52;;;;;;;;;56.60;40.60;;;;;9.77;35.66;99899.97;6118309;28;97270;-64
2021/12/22 09:40:55;;;;;;;;;55.60;43.20;;;;;10.10;35.01;99902.13;6136392;28;97446;-64
2021/12/22 09:44:01;;;;;;;;;48.20;38.60;;;;;10.30;33.95;99895.94;6136454;28;98766;-64
2021/12/22 09:47:06;;;;;;;;;50.00;40.00;;;;;10.11;33.56;99896.56;6109894;28;97040;-64
2021/12/22 09:50:11;;;;;;;;;50.00;39.75;;;;;9.74;34.16;99888.75;6114127;28;96475;-62
2021/12/22 09:53:16;;;;;;;;;56.60;44.60;;;;;9.42;35.58;99892.75;6111164;28;98094;-62
2021/12/22 09:56:22;;;;;;;;;56.25;44.00;;;;;9.08;35.80;99888.00;6126018;28;97394;-64
2021/12/22 09:59:27;;;;;;;;;52.00;41.00;;;;;8.89;35.79;99894.81;6120324;28;97787;-64
2021/12/22 10:02:35;;;;;;;;;48.40;39.00;;;;;8.68;35.63;99892.84;6123163;28;99991;-64
2021/12/22 10:05:40;;;;;;;;;52.80;42.00;;;;;8.54;36.29;99893.69;6120869;28;97920;-64
2021/12/22 10:08:51;;;;;;;;;59.00;44.00;;;;;8.54;36.53;99890.16;6117674;28;97484;-64
2021/12/22 10:11:54;;;;;;;;;56.75;43.00;;;;;8.76;36.62;99899.13;6118469;28;97466;-64
2021/12/22 10:15:17;;;;;;;;;56.00;43.00;;;;;8.53;36.77;99894.69;6141408;28;96479;-64
2021/12/22 10:18:24;;;;;;;;;58.00;44.00;;;;;8.34;37.02;99895.22;6140273;28;97073;-64
2021/12/22 10:21:27;;;;;;;;;54.20;42.60;;;;;8.31;36.96;99894.75;6142280;28;97461;-64
2021/12/22 10:24:37;;;;;;;;;55.00;42.00;;;;;8.15;36.91;99898.41;6139163;28;96979;-63
2021/12/22 10:27:43;;;;;;;;;49.40;39.00;;;;;8.02;36.99;99887.41;6141210;28;96610;-64
2021/12/22 10:30:48;;;;;;;;;46.40;36.20;;;;;7.93;36.41;99891.19;6123400;28;97394;-63
2021/12/22 10:33:53;;;;;;;;;50.00;40.00;;;;;7.86;37.19;99890.25;6139147;28;97566;-64
2021/12/22 10:36:56;;;;;;;;;46.00;38.00;;;;;7.67;37.12;99884.31;6129656;28;96499;-63
2021/12/22 10:39:59;;;;;;;;;48.33;38.67;;;;;7.52;37.39;99883.44;6138662;28;97337;-64
2021/12/22 10:43:05;;;;;;;;;47.00;38.00;;;;;7.38;37.75;99879.66;6140361;28;96615;-65
2021/12/22 10:46:14;;;;;;;;;49.00;38.00;;;;;7.36;37.67;99879.00;6122357;28;97059;-64
2021/12/22 10:49:22;;;;;;;;;47.00;38.00;;;;;7.54;37.67;99873.34;6141401;28;97199;-64
2021/12/22 10:52:26;;;;;;;;;47.80;38.00;;;;;7.71;37.34;99877.59;6121345;28;97131;-64
2021/12/22 10:55:37;;;;;;;;;46.40;38.00;;;;;8.06;36.60;99872.63;6140006;28;96507;-63
2021/12/22 10:58:41;;;;;;;;;42.00;35.00;;;;;8.48;35.53;99872.91;6141176;28;97619;-62
2021/12/22 11:02:05;;;;;;;;;46.50;38.00;;;;;9.11;34.59;99869.63;6124349;28;96813;-64
2021/12/22 11:05:23;;;;;;;;;48.60;38.40;;;;;9.54;33.27;99864.31;6139124;28;96575;-63
2021/12/22 11:08:26;;;;;;;;;43.40;35.00;;;;;9.87;32.62;99865.44;6136962;28;97228;-64
2021/12/22 11:11:32;;;;;;;;;44.20;34.40;;;;;9.85;32.50;99872.91;6140898;28;96463;-64
2021/12/22 11:14:40;;;;;;;;;45.00;35.20;;;;;9.74;32.65;99864.50;6121834;28;97179;-65
2021/12/22 11:17:46;;;;;;;;;42.00;35.00;;;;;9.46;32.97;99875.19;6140975;28;96400;-63
2021/12/22 11:21:07;;;;;;;;;39.00;32.60;;;;;9.12;33.18;99870.47;6123149;28;96916;-63
2021/12/22 11:24:10;;;;;;;;;40.00;32.40;;;;;8.85;33.50;99852.31;6137087;28;97420;-64
2021/12/22 11:27:16;;;;;;;;;37.60;33.00;;;;;8.90;33.53;99871.41;6139650;28;97464;-62
2021/12/22 11:30:20;;;;;;;;;43.00;35.00;;;;;8.80;34.00;99866.31;6137594;28;97450;-63
2021/12/22 11:33:24;;;;;;;;;43.00;34.50;;;;;8.64;34.36;99861.97;6140613;28;96607;-63
2021/12/22 11:36:29;;;;;;;;;47.00;36.00;;;;;8.49;34.77;99854.94;6124102;28;98550;-64
2021/12/22 11:39:36;;;;;;;;;44.60;36.00;;;;;8.34;35.06;99856.78;6121640;28;97799;-63
2021/12/22 11:42:40;;;;;;;;;39.60;32.80;;;;;8.14;34.79;99849.22;6132330;28;99425;-65
2021/12/22 11:45:43;;;;;;;;;41.00;33.00;;;;;7.99;35.30;99850.19;6138378;28;96463;-64
2021/12/22 11:48:49;;;;;;;;;39.80;32.80;;;;;7.84;35.90;99834.88;6139890;28;96731;-64
2021/12/22 11:51:56;;;;;;;;;39.00;33.00;;;;;7.86;35.46;99847.28;6142193;28;96598;-65
2021/12/22 11:55:13;;;;;;;;;42.20;33.60;;;;;7.58;36.17;99839.78;6139220;28;96544;-66
2021/12/22 11:58:19;;;;;;;;;45.40;36.00;;;;;7.50;36.82;99842.53;6138428;28;96861;-65
2021/12/22 12:01:22;;;;;;;;;40.75;34.25;;;;;7.35;36.88;99837.09;6138423;28;96572;-64
2021/12/22 12:04:35;;;;;;;;;37.00;31.75;;;;;7.25;36.64;99839.16;6141072;28;96682;-63
2021/12/22 12:07:49;;;;;;;;;44.00;34.50;;;;;7.31;36.78;99838.47;6122321;28;99717;-63
2021/12/22 12:10:56;;;;;;;;;47.00;35.00;;;;;7.40;36.65;99823.16;6120883;28;98439;-64
2021/12/22 12:14:06;;;;;;;;;37.20;32.80;;;;;7.42;36.82;99826.50;6138733;28;97522;-64
2021/12/22 12:27:53;;;;;;;;;36.60;31.00;;;;;7.49;36.24;99824.75;6258816;27;96258;-64
2021/12/22 12:30:57;;;;;;;;;30.60;27.20;;;;;7.43;35.33;99824.66;6252750;27;96699;-64
2021/12/22 12:34:21;;;;;;;;;33.00;28.50;;;;;7.42;35.90;99825.66;6254975;27;96587;-64
2021/12/22 12:37:54;;;;;;;;;31.00;27.80;;;;;7.36;36.13;99829.88;6258368;27;97051;-64
2021/12/22 12:41:13;;;;;;;;;23.20;20.00;;;;;7.40;34.96;99833.88;6255539;27;96703;-62
2021/12/22 12:44:28;;;;;;;;;24.80;20.40;;;;;7.47;34.70;99837.53;6253901;27;98400;-64
2021/12/22 12:47:32;;;;;;;;;21.00;19.50;;;;;7.49;34.17;99834.66;6253024;27;97032;-65
2021/12/22 12:50:35;;;;;;;;;23.60;20.00;;;;;7.43;34.57;99836.19;6254599;27;97512;-62
2021/12/22 12:53:41;;;;;;;;;23.80;22.20;;;;;7.34;34.68;99838.09;6279630;27;96720;-64
2021/12/22 12:56:47;;;;;;;;;21.00;19.00;;;;;7.31;34.75;99837.63;6222170;27;96628;-65
2021/12/22 12:59:54;;;;;;;;;21.60;20.60;;;;;7.20;34.72;99835.34;6220383;28;97016;-66
2021/12/22 13:03:09;;;;;;;;;26.60;23.60;;;;;7.21;34.68;99853.13;6209308;28;97451;-63
2021/12/22 13:06:12;;;;;;;;;23.00;22.00;;;;;7.14;35.26;99849.44;6205675;28;97456;-65
2021/12/22 13:09:22;;;;;;;;;22.00;20.60;;;;;7.09;35.32;99838.41;6213133;28;98777;-63
2021/12/22 13:12:46;;;;;;;;;28.00;24.00;;;;;7.11;35.40;99845.28;6218895;28;96899;-62
2021/12/22 13:15:51;;;;;;;;;26.00;22.60;;;;;6.96;35.98;99847.88;6213420;28;97962;-64
2021/12/22 13:18:55;;;;;;;;;22.80;20.60;;;;;6.87;35.65;99854.31;6217571;28;96611;-64
2021/12/22 13:21:58;;;;;;;;;22.00;19.00;;;;;6.83;35.80;99852.16;6219687;28;97540;-65
2021/12/22 13:25:10;;;;;;;;;22.20;20.00;;;;;6.75;35.70;99847.63;6216736;28;97402;-64
2021/12/22 13:28:16;;;;;;;;;21.40;19.00;;;;;6.72;35.55;99839.94;6215720;28;96492;-63
2021/12/22 13:31:21;;;;;;;;;23.25;22.00;;;;;6.64;35.93;99850.72;6218918;28;98310;-65
2021/12/22 13:34:24;;;;;;;;;23.33;22.00;;;;;6.59;36.33;99854.91;6224213;28;97536;-64
2021/12/22 13:37:27;;;;;;;;;26.60;23.20;;;;;6.52;36.49;99857.44;6224523;28;96518;-64
2021/12/22 13:40:50;;;;;;;;;21.00;20.40;;;;;6.40;36.40;99848.13;6217895;28;96782;-64
2021/12/22 13:43:57;;;;;;;;;14.20;13.00;;;;;6.41;35.54;99849.75;6223475;28;97981;-65
2021/12/22 13:47:02;;;;;;;;;14.80;13.80;;;;;6.36;35.74;99839.56;6245153;27;98029;-64
2021/12/22 13:50:06;;;;;;;;;19.40;17.80;;;;;6.36;35.90;99852.13;6213966;28;98565;-63
2021/12/22 13:53:10;;;;;;;;;16.00;14.00;;;;;6.22;35.63;99856.34;6206562;28;97114;-63
2021/12/22 13:56:14;;;;;;;;;18.00;16.00;;;;;6.20;36.06;99863.72;6209132;28;96654;-63
2021/12/22 13:59:23;;;;;;;;;17.00;15.00;;;;;6.16;36.21;99865.03;6216628;28;96980;-63
2021/12/22 14:02:35;;;;;;;;;19.00;18.67;;;;;6.12;36.16;99876.25;6216777;28;97653;-64
2021/12/22 14:05:39;;;;;;;;;21.00;17.40;;;;;6.12;36.44;99865.56;6213505;28;97305;-64
2021/12/22 14:08:42;;;;;;;;;20.00;18.80;;;;;6.04;36.65;99869.94;6214066;28;98199;-65
2021/12/22 14:11:49;;;;;;;;;21.00;16.00;;;;;5.95;36.75;99873.63;6194274;28;96733;-64
2021/12/22 14:14:54;;;;;;;;;19.25;17.25;;;;;5.90;36.98;99872.44;6197284;28;96643;-64
2021/12/22 14:17:58;;;;;;;;;21.60;18.60;;;;;5.96;37.24;99874.47;6211258;28;97307;-64
2021/12/22 14:21:02;;;;;;;;;22.00;20.00;;;;;5.85;37.73;99862.22;6213463;28;96682;-62
2021/12/22 14:24:06;;;;;;;;;26.00;23.00;;;;;5.78;38.12;99858.53;6212144;28;97524;-65
2021/12/22 14:27:13;;;;;;;;;23.60;21.60;;;;;5.52;38.29;99844.47;6204706;28;97424;-65
2021/12/22 14:30:26;;;;;;;;;24.40;22.00;;;;;5.71;38.22;99864.72;6204990;28;96521;-64
2021/12/22 14:33:31;;;;;;;;;23.00;21.00;;;;;5.66;38.50;99855.34;6186567;28;96818;-63
2021/12/22 14:36:46;;;;;;;;;23.80;21.00;;;;;5.61;38.29;99867.56;6202856;28;96724;-64
2021/12/22 14:39:51;;;;;;;;;24.80;22.20;;;;;5.61;38.52;99863.06;6212862;28;97288;-64